Time;durP1;ratioP1;P1;durP2;ratioP2;P2;SDS_P1;SDS_P2;PMS_P1;PMS_P2;Temp;Humidity;BMP_temperature;BMP_pressure;BME280_temperature;BME280_humidity;BME280_pressure;Samples;Min_cycle;Max_cycle;Signal;HPM_P1;HPM_P2
2023/04/26 00:00:44;;;;;;;8.32;5.43;;;;;;;12.35;75.31;97987.78;7375382;19;20007;-72
2023/04/26 00:03:09;;;;;;;9.68;5.38;;;;;;;12.32;75.66;97984.59;7374362;19;20006;-73
2023/04/26 00:05:34;;;;;;;7.07;5.30;;;;;;;12.28;75.73;97986.78;7375481;19;20013;-73
2023/04/26 00:07:59;;;;;;;7.25;5.28;;;;;;;12.32;76.03;97987.25;7374705;19;20023;-73
2023/04/26 00:10:24;;;;;;;10.60;5.55;;;;;;;12.30;75.95;97976.72;7375598;19;20011;-71
2023/04/26 00:12:49;;;;;;;8.75;6.07;;;;;;;12.30;76.10;97973.25;7367740;19;20027;-73
2023/04/26 00:15:13;;;;;;;8.65;6.65;;;;;;;12.28;75.83;97964.56;7361989;19;20014;-72
2023/04/26 00:17:38;;;;;;;9.00;5.90;;;;;;;12.26;75.66;97970.06;7344162;19;20059;-71
2023/04/26 00:20:06;;;;;;;9.32;6.05;;;;;;;12.24;76.18;97972.06;7344349;19;20019;-73
2023/04/26 00:22:31;;;;;;;8.40;6.18;;;;;;;12.21;76.06;97975.03;7344222;19;20023;-71
2023/04/26 00:24:56;;;;;;;8.93;6.60;;;;;;;12.19;76.30;97973.53;7346694;19;20507;-72
2023/04/26 00:27:20;;;;;;;8.18;5.35;;;;;;;12.17;75.78;97967.53;7346559;19;20560;-73
2023/04/26 00:29:45;;;;;;;7.97;5.85;;;;;;;12.13;75.90;97974.16;7348967;19;20021;-72
2023/04/26 00:32:10;;;;;;;7.25;5.20;;;;;;;12.10;75.86;97969.97;7343579;19;20006;-72
2023/04/26 00:34:36;;;;;;;9.55;5.55;;;;;;;12.07;76.31;97966.81;7343708;19;20466;-72
2023/04/26 00:37:02;;;;;;;9.13;5.03;;;;;;;12.06;76.48;97973.97;7343416;19;20366;-73
2023/04/26 00:39:27;;;;;;;6.25;4.82;;;;;;;12.04;76.52;97959.94;7344030;19;20649;-71
2023/04/26 00:41:52;;;;;;;7.18;5.18;;;;;;;12.00;76.52;97959.41;7343907;19;20106;-70
2023/04/26 00:44:16;;;;;;;15.10;6.75;;;;;;;12.00;76.77;97948.72;7340825;19;20124;-72
2023/04/26 00:46:42;;;;;;;10.77;6.63;;;;;;;11.99;76.74;97947.06;7341083;19;20442;-74
2023/04/26 00:49:06;;;;;;;8.55;6.18;;;;;;;11.97;76.61;97945.53;7343543;19;20018;-74
2023/04/26 00:51:31;;;;;;;11.48;6.10;;;;;;;11.92;76.69;97935.34;7343343;19;20010;-71
2023/04/26 00:53:56;;;;;;;9.57;6.72;;;;;;;11.91;77.02;97939.00;7342538;19;20029;-77
2023/04/26 00:56:23;;;;;;;10.15;6.90;;;;;;;11.91;77.32;97938.19;7347349;19;20342;-76
2023/04/26 00:58:48;;;;;;;7.65;6.05;;;;;;;11.81;77.25;97932.97;7341479;19;20019;-71
2023/04/26 01:01:13;;;;;;;13.10;6.50;;;;;;;11.81;77.39;97922.28;7342344;19;20037;-73
2023/04/26 01:03:38;;;;;;;12.77;6.65;;;;;;;11.85;77.66;97928.97;7341654;19;20493;-73
2023/04/26 01:06:02;;;;;;;9.60;6.43;;;;;;;11.84;77.97;97927.31;7343187;19;20383;-78
2023/04/26 01:08:27;;;;;;;8.95;5.93;;;;;;;11.84;78.27;97927.31;7347123;19;20086;-71
2023/04/26 01:10:52;;;;;;;9.55;5.90;;;;;;;11.85;78.30;97923.63;7342220;19;20035;-76
2023/04/26 01:13:17;;;;;;;11.13;6.20;;;;;;;11.84;78.55;97924.63;7343325;19;20018;-72
2023/04/26 01:15:45;;;;;;;7.47;6.10;;;;;;;11.90;78.78;97926.66;7340318;19;20018;-73
2023/04/26 01:18:10;;;;;;;10.30;5.70;;;;;;;11.90;79.14;97907.13;7339868;19;20003;-74
2023/04/26 01:20:35;;;;;;;8.45;6.32;;;;;;;11.93;79.21;97912.16;7340253;19;20014;-72
2023/04/26 01:22:59;;;;;;;10.68;6.63;;;;;;;11.95;79.49;97907.50;7337002;19;20018;-71
2023/04/26 01:25:24;;;;;;;10.48;6.70;;;;;;;11.99;79.14;97912.34;7339903;19;20029;-71
2023/04/26 01:27:49;;;;;;;11.95;7.05;;;;;;;12.00;79.23;97907.84;7340508;19;20575;-72
2023/04/26 01:30:14;;;;;;;11.10;7.47;;;;;;;12.05;79.17;97908.19;7338779;19;20441;-72
2023/04/26 01:32:38;;;;;;;10.35;6.68;;;;;;;12.06;79.32;97909.03;7340875;19;20038;-71
2023/04/26 01:35:04;;;;;;;9.05;6.43;;;;;;;12.07;79.34;97895.53;7338814;19;20078;-72
2023/04/26 01:37:30;;;;;;;10.07;6.88;;;;;;;12.12;79.64;97897.69;7339991;19;20046;-75
2023/04/26 01:39:58;;;;;;;9.52;7.10;;;;;;;12.13;79.61;97899.38;7340891;19;20010;-77
2023/04/26 01:42:23;;;;;;;9.68;7.15;;;;;;;12.14;79.65;97901.88;7339651;19;20339;-67
2023/04/26 01:44:49;;;;;;;11.95;8.68;;;;;;;12.13;79.30;97888.69;7339050;19;20031;-73
2023/04/26 01:47:14;;;;;;;10.57;7.93;;;;;;;12.10;79.38;97884.50;7341612;19;20018;-73
2023/04/26 01:49:40;;;;;;;12.85;7.60;;;;;;;12.02;79.38;97880.97;7342755;19;20019;-70
2023/04/26 01:52:05;;;;;;;11.05;8.38;;;;;;;12.01;79.72;97874.78;7341981;19;20017;-70
2023/04/26 01:54:29;;;;;;;12.57;8.80;;;;;;;11.98;79.66;97865.25;7342336;19;20023;-65
2023/04/26 01:56:54;;;;;;;10.18;8.07;;;;;;;12.01;80.09;97874.78;7340838;19;20033;-67
2023/04/26 01:59:19;;;;;;;12.30;7.85;;;;;;;11.98;80.10;97875.94;7337857;19;20473;-70
2023/04/26 02:01:43;;;;;;;12.80;8.30;;;;;;;11.97;80.31;97876.09;7345472;19;20049;-72
2023/04/26 02:04:09;;;;;;;11.65;8.05;;;;;;;11.94;80.50;97871.94;7339067;19;20011;-69
2023/04/26 02:06:34;;;;;;;10.70;8.00;;;;;;;11.94;80.64;97868.44;7341115;19;20046;-75
2023/04/26 02:08:59;;;;;;;12.02;7.95;;;;;;;11.92;80.65;97860.59;7343889;19;20259;-77
2023/04/26 02:11:25;;;;;;;12.18;8.70;;;;;;;11.89;80.68;97855.56;7342531;19;20015;-74
2023/04/26 02:13:50;;;;;;;14.88;8.18;;;;;;;11.87;80.88;97862.03;7344665;19;20039;-76
2023/04/26 02:16:20;;;;;;;9.50;7.30;;;;;;;11.86;80.43;97855.03;7341939;19;20271;-68
2023/04/26 02:18:44;;;;;;;13.23;7.95;;;;;;;11.78;80.60;97853.19;7341333;19;20432;-77
2023/04/26 02:21:10;;;;;;;10.13;7.80;;;;;;;11.78;81.04;97855.84;7340990;19;20472;-75
2023/04/26 02:23:35;;;;;;;12.77;7.40;;;;;;;11.76;81.10;97855.16;7340892;19;20017;-68
2023/04/26 02:26:00;;;;;;;11.00;7.80;;;;;;;11.76;81.13;97841.81;7340807;19;20011;-71
2023/04/26 02:28:25;;;;;;;15.93;7.57;;;;;;;11.69;81.41;97842.59;7340950;19;20021;-66
2023/04/26 02:30:55;;;;;;;10.73;7.18;;;;;;;11.70;81.29;97849.59;7339800;19;20026;-69
2023/04/26 02:33:20;;;;;;;12.95;9.50;;;;;;;11.71;81.36;97841.44;7338530;19;20061;-70
2023/04/26 02:35:45;;;;;;;14.00;8.43;;;;;;;11.63;80.89;97844.91;7342017;19;20011;-70
2023/04/26 02:38:09;;;;;;;12.60;8.57;;;;;;;11.63;81.31;97841.38;7348971;19;20014;-73
2023/04/26 02:40:34;;;;;;;10.02;7.78;;;;;;;11.63;81.50;97836.06;7350778;19;20021;-73
2023/04/26 02:42:59;;;;;;;11.52;8.35;;;;;;;11.62;81.72;97832.53;7349774;19;20209;-75
2023/04/26 02:45:24;;;;;;;13.38;7.95;;;;;;;11.61;82.01;97835.41;7352221;19;20059;-74
2023/04/26 02:47:48;;;;;;;15.85;8.52;;;;;;;11.57;82.30;97826.03;7348426;19;20078;-74
2023/04/26 02:50:13;;;;;;;11.38;8.15;;;;;;;11.59;82.27;97829.38;7348993;19;20039;-78
2023/04/26 02:52:38;;;;;;;10.80;7.32;;;;;;;11.57;82.11;97829.53;7349398;19;20035;-78
2023/04/26 02:55:03;;;;;;;14.13;8.02;;;;;;;11.55;82.69;97834.19;7347899;19;20018;-73
2023/04/26 02:57:30;;;;;;;9.95;7.18;;;;;;;11.51;82.52;97818.69;7344572;19;20045;-72
2023/04/26 02:59:55;;;;;;;11.25;7.32;;;;;;;11.51;82.69;97818.69;7343715;19;20469;-74
2023/04/26 03:02:20;;;;;;;13.40;8.15;;;;;;;11.53;82.78;97822.84;7346337;19;20470;-72
2023/04/26 03:04:46;;;;;;;11.85;7.03;;;;;;;11.55;82.66;97820.84;7343796;19;20019;-72
2023/04/26 03:07:10;;;;;;;11.93;7.40;;;;;;;11.50;82.90;97817.00;7346023;19;20019;-68
2023/04/26 03:09:37;;;;;;;9.25;6.95;;;;;;;11.52;82.92;97815.81;7345296;19;20086;-70
2023/04/26 03:12:02;;;;;;;11.68;7.35;;;;;;;11.53;82.94;97817.50;7346329;19;20038;-70
2023/04/26 03:14:27;;;;;;;11.93;7.43;;;;;;;11.55;82.90;97820.00;7347294;19;20021;-70
2023/04/26 03:16:54;;;;;;;10.55;7.45;;;;;;;11.51;82.69;97813.34;7348054;19;20009;-69
2023/04/26 03:19:19;;;;;;;11.70;7.03;;;;;;;11.53;82.81;97804.16;7346372;19;20007;-76
2023/04/26 03:21:44;;;;;;;10.65;7.13;;;;;;;11.53;82.77;97809.50;7347377;19;20018;-69
2023/04/26 03:24:10;;;;;;;9.20;7.25;;;;;;;11.48;82.95;97805.66;7346215;19;20009;-70
2023/04/26 03:26:35;;;;;;;8.23;6.07;;;;;;;11.45;83.41;97814.81;7345979;19;20505;-70
2023/04/26 03:29:01;;;;;;;8.95;6.35;;;;;;;11.46;83.64;97796.97;7347444;19;20014;-68
2023/04/26 03:31:26;;;;;;;8.77;6.53;;;;;;;11.47;83.58;97802.16;7346239;19;20022;-69
2023/04/26 03:33:51;;;;;;;7.43;5.78;;;;;;;11.46;83.54;97807.63;7343705;19;20021;-68
2023/04/26 03:36:16;;;;;;;9.55;6.60;;;;;;;11.36;83.63;97801.59;7343264;19;20022;-69
2023/04/26 03:38:41;;;;;;;9.32;6.57;;;;;;;11.40;83.87;97797.63;7343671;19;20021;-71
2023/04/26 03:41:07;;;;;;;13.45;5.78;;;;;;;11.39;83.89;97799.44;7346379;19;20039;-71
2023/04/26 03:43:32;;;;;;;9.48;5.53;;;;;;;11.37;84.21;97797.94;7350276;19;20521;-73
2023/04/26 03:45:59;;;;;;;8.38;6.13;;;;;;;11.37;84.29;97795.25;7344258;19;20026;-72
2023/04/26 03:48:24;;;;;;;7.32;5.22;;;;;;;11.37;84.39;97792.59;7346695;19;20023;-71
2023/04/26 03:50:49;;;;;;;13.52;6.35;;;;;;;11.42;84.68;97790.25;7348664;19;20006;-71
2023/04/26 03:53:17;;;;;;;9.90;5.53;;;;;;;11.41;84.44;97778.75;7348719;19;20013;-73
2023/04/26 03:55:42;;;;;;;12.93;5.95;;;;;;;11.41;84.66;97783.25;7346808;19;20019;-72
2023/04/26 03:58:07;;;;;;;7.93;5.85;;;;;;;11.36;84.70;97775.75;7345779;19;20010;-70
2023/04/26 04:00:35;;;;;;;8.60;5.65;;;;;;;11.42;84.78;97793.78;7341048;19;20018;-71
2023/04/26 04:03:00;;;;;;;10.65;6.00;;;;;;;11.41;84.29;97791.25;7340548;19;20394;-71
2023/04/26 04:05:25;;;;;;;8.85;6.25;;;;;;;11.32;84.58;97773.53;7341792;19;20024;-72
2023/04/26 04:07:51;;;;;;;11.55;6.28;;;;;;;11.28;84.72;97773.88;7342183;19;20022;-71
2023/04/26 04:10:16;;;;;;;10.75;6.38;;;;;;;11.28;85.08;97781.88;7342598;19;20033;-71
2023/04/26 04:12:42;;;;;;;11.45;6.82;;;;;;;11.32;85.18;97778.88;7345038;19;20358;-71
2023/04/26 04:15:07;;;;;;;9.23;6.03;;;;;;;11.34;85.30;97779.56;7345687;19;20018;-71
2023/04/26 04:17:35;;;;;;;8.18;6.13;;;;;;;11.35;85.47;97771.41;7349361;19;20107;-71
2023/04/26 04:20:03;;;;;;;10.35;5.53;;;;;;;11.40;85.42;97778.94;7346613;19;20029;-71
2023/04/26 04:22:29;;;;;;;9.88;5.45;;;;;;;11.40;85.48;97779.75;7342639;19;20332;-71
2023/04/26 04:24:54;;;;;;;9.95;6.18;;;;;;;11.42;85.69;97771.59;7341968;19;20010;-72
2023/04/26 04:27:20;;;;;;;8.45;5.65;;;;;;;11.42;85.66;97772.41;7342089;19;20472;-72
2023/04/26 04:29:45;;;;;;;11.38;5.78;;;;;;;11.35;85.48;97767.91;7341261;19;20018;-72
2023/04/26 04:32:10;;;;;;;7.68;5.47;;;;;;;11.36;85.71;97766.91;7342692;19;20010;-71
2023/04/26 04:34:35;;;;;;;7.43;5.15;;;;;;;11.38;85.77;97765.75;7341500;19;20025;-72
2023/04/26 04:37:01;;;;;;;8.30;5.60;;;;;;;11.41;85.77;97769.91;7342174;19;20450;-71
2023/04/26 04:39:26;;;;;;;9.52;6.55;;;;;;;11.44;85.97;97769.59;7341446;19;20082;-72
2023/04/26 04:41:53;;;;;;;9.68;5.60;;;;;;;11.47;86.15;97770.13;7343274;19;20023;-73
2023/04/26 04:44:18;;;;;;;7.15;5.38;;;;;;;11.39;85.34;97764.75;7341367;19;20022;-72
2023/04/26 04:46:43;;;;;;;10.95;5.95;;;;;;;11.35;85.76;97779.41;7341090;19;20022;-71
2023/04/26 04:49:10;;;;;;;8.65;5.40;;;;;;;11.35;86.02;97771.41;7340833;19;20837;-71
2023/04/26 04:51:35;;;;;;;7.85;5.35;;;;;;;11.36;86.31;97772.25;7342892;19;20022;-72
2023/04/26 04:54:11;;;;;;;8.25;5.32;;;;;;;11.44;85.88;97781.09;7340501;19;20018;-71
2023/04/26 04:56:37;;;;;;;8.60;6.30;;;;;;;11.38;86.30;97775.59;7340015;19;20017;-71
2023/04/26 04:59:03;;;;;;;9.07;5.95;;;;;;;11.38;86.28;97778.25;7338806;19;20033;-72
2023/04/26 05:01:28;;;;;;;9.13;6.25;;;;;;;11.42;86.18;97776.91;7340210;19;20105;-71
2023/04/26 05:03:55;;;;;;;8.43;5.18;;;;;;;11.42;86.14;97772.41;7341952;19;20492;-73
2023/04/26 05:06:21;;;;;;;6.85;4.63;;;;;;;11.49;86.44;97775.31;7340299;19;20019;-71
2023/04/26 05:08:46;;;;;;;8.55;5.15;;;;;;;11.49;86.47;97764.63;7341447;19;20018;-74
2023/04/26 05:11:11;;;;;;;5.88;4.53;;;;;;;11.54;86.39;97771.13;7342476;19;20024;-75
2023/04/26 05:13:35;;;;;;;6.55;4.65;;;;;;;11.61;86.32;97768.69;7340592;19;20489;-74
2023/04/26 05:16:00;;;;;;;8.07;4.93;;;;;;;11.62;86.46;97767.69;7342368;19;20011;-75
2023/04/26 05:18:25;;;;;;;10.73;5.65;;;;;;;11.66;86.34;97771.69;7343586;19;20025;-74
2023/04/26 05:20:50;;;;;;;13.25;6.38;;;;;;;11.68;86.12;97768.84;7345228;19;20018;-73
2023/04/26 05:23:14;;;;;;;9.32;6.15;;;;;;;11.71;86.21;97765.88;7341216;19;20107;-74
2023/04/26 05:25:40;;;;;;;6.30;4.28;;;;;;;11.68;85.96;97760.84;7343121;19;20025;-72
2023/04/26 05:28:24;;;;;;;6.63;4.35;;;;;;;11.69;86.02;97760.69;7343624;19;20088;-73
2023/04/26 05:31:10;;;;;;;7.47;5.93;;;;;;;11.74;86.10;97763.69;7342708;19;20010;-73
2023/04/26 05:33:51;;;;;;;6.47;4.73;;;;;;;11.75;86.15;97760.06;7342657;19;20022;-73
2023/04/26 05:36:27;;;;;;;6.60;4.75;;;;;;;11.77;86.25;97762.56;7343190;19;20078;-74
2023/04/26 05:38:52;;;;;;;8.18;4.60;;;;;;;11.77;86.33;97760.72;7344193;19;20014;-74
2023/04/26 05:41:17;;;;;;;9.98;4.40;;;;;;;11.77;86.23;97763.41;7340906;19;20050;-73
2023/04/26 05:43:41;;;;;;;5.05;3.97;;;;;;;11.78;86.32;97766.91;7339809;19;20002;-74
2023/04/26 05:46:06;;;;;;;8.63;5.75;;;;;;;11.75;86.21;97756.50;7340515;19;20007;-73
2023/04/26 05:48:31;;;;;;;7.93;4.68;;;;;;;11.73;86.31;97762.03;7343034;19;20010;-74
2023/04/26 05:50:55;;;;;;;6.38;4.32;;;;;;;11.76;86.33;97764.41;7344009;19;20017;-72
2023/04/26 05:53:20;;;;;;;4.88;3.95;;;;;;;11.75;86.46;97765.41;7339832;19;20006;-71
2023/04/26 05:55:45;;;;;;;11.82;3.80;;;;;;;11.74;86.38;97766.34;7339611;19;20006;-73
2023/04/26 05:58:10;;;;;;;6.95;4.15;;;;;;;11.76;86.47;97768.91;7340748;19;20033;-72
2023/04/26 06:00:37;;;;;;;7.93;4.10;;;;;;;11.82;86.50;97762.94;7339514;19;20021;-71
2023/04/26 06:03:02;;;;;;;11.07;4.35;;;;;;;11.83;86.40;97773.44;7341723;19;20019;-71
2023/04/26 06:05:27;;;;;;;7.25;5.63;;;;;;;11.83;86.54;97767.28;7338933;19;20042;-71
2023/04/26 06:07:52;;;;;;;8.52;4.80;;;;;;;11.88;86.38;97770.28;7341350;19;20007;-71
2023/04/26 06:10:17;;;;;;;8.07;4.13;;;;;;;11.94;86.48;97770.47;7341266;19;20003;-74
2023/04/26 06:12:41;;;;;;;6.13;4.18;;;;;;;12.00;86.46;97772.47;7346239;19;20047;-72
2023/04/26 06:15:07;;;;;;;7.07;3.85;;;;;;;12.04;86.35;97772.16;7346603;19;20104;-72
2023/04/26 06:17:33;;;;;;;7.10;4.10;;;;;;;12.07;86.21;97774.50;7346912;19;20469;-77
2023/04/26 06:19:58;;;;;;;6.22;3.78;;;;;;;12.10;86.37;97771.47;7350166;19;20463;-78
2023/04/26 06:22:22;;;;;;;6.75;3.17;;;;;;;12.12;86.43;97777.50;7350344;19;20027;-71
2023/04/26 06:24:47;;;;;;;8.07;4.30;;;;;;;12.13;86.07;97780.00;7348078;19;20341;-71
2023/04/26 06:27:12;;;;;;;6.72;3.92;;;;;;;12.16;86.16;97770.84;7350211;19;20473;-72
2023/04/26 06:29:42;;;;;;;6.85;4.35;;;;;;;12.19;86.02;97776.66;7348098;19;20035;-73
2023/04/26 06:32:07;;;;;;;7.80;4.15;;;;;;;12.19;86.00;97775.84;7348880;19;20011;-72
2023/04/26 06:34:32;;;;;;;7.20;4.57;;;;;;;12.19;85.93;97765.16;7350103;19;20010;-76
2023/04/26 06:36:57;;;;;;;5.65;3.90;;;;;;;12.19;85.72;97781.19;7352932;19;20094;-73
2023/04/26 06:39:23;;;;;;;8.50;4.50;;;;;;;12.14;85.70;97779.00;7350822;19;20100;-73
2023/04/26 06:41:48;;;;;;;5.97;4.05;;;;;;;12.17;85.79;97791.22;7352361;19;20022;-75
2023/04/26 06:44:23;;;;;;;6.93;3.90;;;;;;;12.19;85.68;97786.53;7350362;19;20058;-75
2023/04/26 06:46:48;;;;;;;8.43;4.00;;;;;;;12.15;85.77;97779.84;7352863;19;20470;-73
2023/04/26 06:49:13;;;;;;;8.65;4.53;;;;;;;12.14;85.77;97791.53;7345420;19;20457;-72
2023/04/26 06:51:38;;;;;;;6.00;3.53;;;;;;;12.14;85.77;97792.38;7348141;19;20529;-73
2023/04/26 06:54:03;;;;;;;6.70;3.70;;;;;;;12.11;85.75;97789.19;7349685;19;20011;-72
2023/04/26 06:56:28;;;;;;;6.57;4.35;;;;;;;12.13;85.73;97792.53;7348315;19;20033;-73
2023/04/26 06:59:03;;;;;;;6.50;4.10;;;;;;;12.21;86.07;97795.19;7349296;19;20034;-72
2023/04/26 07:01:32;;;;;;;4.30;3.83;;;;;;;12.17;85.97;97805.41;7346562;19;20114;-71
2023/04/26 07:03:57;;;;;;;7.22;4.25;;;;;;;12.18;85.91;97792.88;7343663;19;20015;-72
2023/04/26 07:06:23;;;;;;;10.75;4.30;;;;;;;12.23;86.04;97793.19;7345702;19;20123;-72
2023/04/26 07:08:47;;;;;;;12.68;5.28;;;;;;;12.22;85.76;97792.38;7345948;19;20790;-72
2023/04/26 07:11:12;;;;;;;8.90;5.35;;;;;;;12.24;85.64;97794.88;7344612;19;20445;-72
2023/04/26 07:13:37;;;;;;;6.40;3.88;;;;;;;12.22;85.42;97795.03;7345839;19;20022;-71
2023/04/26 07:16:02;;;;;;;5.25;3.47;;;;;;;12.26;85.47;97806.25;7344046;19;20011;-72
2023/04/26 07:18:26;;;;;;;5.72;3.80;;;;;;;12.26;85.62;97798.22;7345776;19;20461;-72
2023/04/26 07:20:51;;;;;;;5.85;3.90;;;;;;;12.30;85.83;97794.25;7343746;19;20327;-74
2023/04/26 07:23:16;;;;;;;6.97;3.80;;;;;;;12.38;85.62;97796.91;7345196;19;20014;-72
2023/04/26 07:25:40;;;;;;;5.53;3.38;;;;;;;12.42;85.53;97814.25;7345676;19;20048;-73
2023/04/26 07:28:05;;;;;;;5.50;3.90;;;;;;;12.48;85.45;97807.44;7348633;19;20010;-75
2023/04/26 07:30:31;;;;;;;5.13;3.58;;;;;;;12.47;85.58;97809.25;7347109;19;20019;-73
2023/04/26 07:32:56;;;;;;;5.40;3.42;;;;;;;12.55;85.54;97805.75;7347214;19;20101;-73
2023/04/26 07:35:21;;;;;;;9.77;4.05;;;;;;;12.61;85.28;97811.28;7344711;19;20015;-73
2023/04/26 07:37:46;;;;;;;7.18;4.10;;;;;;;12.63;84.87;97806.63;7345213;19;20022;-72
2023/04/26 07:40:12;;;;;;;5.82;3.20;;;;;;;12.66;84.60;97822.28;7343418;19;20117;-71
2023/04/26 07:42:36;;;;;;;6.43;4.78;;;;;;;12.66;84.45;97802.75;7346271;19;20469;-72
2023/04/26 07:45:02;;;;;;;11.43;4.45;;;;;;;12.65;84.38;97809.94;7344658;19;20448;-72
2023/04/26 07:47:30;;;;;;;5.53;3.70;;;;;;;12.70;84.09;97812.13;7345249;19;20015;-74
2023/04/26 07:49:55;;;;;;;6.35;4.63;;;;;;;12.73;83.71;97809.94;7346600;19;20025;-75
2023/04/26 07:52:19;;;;;;;8.93;3.92;;;;;;;12.78;83.62;97806.75;7346764;19;20010;-72
2023/04/26 07:54:45;;;;;;;7.75;4.10;;;;;;;12.76;83.16;97815.94;7344848;19;20021;-71
2023/04/26 07:57:10;;;;;;;13.95;5.55;;;;;;;12.79;83.29;97815.63;7346053;19;20025;-72
2023/04/26 07:59:35;;;;;;;9.27;4.80;;;;;;;12.81;83.25;97818.97;7343696;19;20018;-73
2023/04/26 08:02:00;;;;;;;6.93;4.40;;;;;;;12.90;83.31;97823.28;7346563;19;20026;-72
2023/04/26 08:04:35;;;;;;;6.88;4.57;;;;;;;12.97;83.18;97826.97;7345748;19;20010;-71
2023/04/26 08:07:00;;;;;;;5.95;4.03;;;;;;;12.99;83.35;97825.78;7346226;19;20023;-71
2023/04/26 08:09:25;;;;;;;7.03;4.07;;;;;;;13.12;83.33;97830.63;7344920;19;20406;-73
2023/04/26 08:11:50;;;;;;;7.57;4.15;;;;;;;13.18;82.77;97823.81;7346402;19;20398;-73
2023/04/26 08:14:14;;;;;;;7.20;4.80;;;;;;;13.31;82.63;97829.47;7346663;19;20010;-72
2023/04/26 08:16:40;;;;;;;9.82;4.68;;;;;;;13.33;82.21;97833.63;7346256;19;20462;-72
2023/04/26 08:19:05;;;;;;;5.78;3.75;;;;;;;13.23;81.22;97829.47;7345844;19;20017;-71
2023/04/26 08:21:30;;;;;;;7.65;4.57;;;;;;;13.29;81.31;97823.44;7345167;19;20019;-71
2023/04/26 08:23:55;;;;;;;12.35;4.32;;;;;;;13.39;81.38;97838.31;7342267;19;20017;-72
2023/04/26 08:26:20;;;;;;;8.30;5.97;;;;;;;13.44;81.47;97838.59;7343416;19;20019;-72
2023/04/26 08:28:45;;;;;;;8.07;6.13;;;;;;;13.46;81.29;97841.13;7343255;19;20371;-71
2023/04/26 08:31:10;;;;;;;10.70;6.72;;;;;;;13.64;81.23;97841.75;7340931;19;20015;-73
2023/04/26 08:33:34;;;;;;;12.75;5.85;;;;;;;13.89;80.87;97841.63;7338993;19;20010;-71
2023/04/26 08:36:00;;;;;;;10.00;6.30;;;;;;;14.13;79.75;97845.03;7340705;19;20013;-70
2023/04/26 08:38:25;;;;;;;9.93;5.80;;;;;;;14.31;78.76;97838.56;7341185;19;20109;-71
2023/04/26 08:40:50;;;;;;;9.35;5.20;;;;;;;14.48;78.82;97838.31;7341074;19;20035;-72
2023/04/26 08:43:16;;;;;;;12.00;6.20;;;;;;;14.53;78.39;97841.31;7339909;19;20114;-73
2023/04/26 08:45:45;;;;;;;10.32;6.15;;;;;;;14.52;77.98;97844.16;7342180;19;20812;-73
2023/04/26 08:48:14;;;;;;;11.38;5.03;;;;;;;14.32;77.27;97848.28;7340735;19;20809;-72
2023/04/26 08:50:42;;;;;;;9.70;4.95;;;;;;;14.35;77.99;97855.94;7341311;19;20031;-73
2023/04/26 08:53:07;;;;;;;8.57;4.90;;;;;;;14.31;78.04;97843.94;7341602;19;20019;-72
2023/04/26 08:55:34;;;;;;;10.55;4.43;;;;;;;14.30;78.08;97851.13;7340015;19;20039;-74
2023/04/26 08:58:00;;;;;;;15.77;5.22;;;;;;;14.26;77.97;97843.63;7340524;19;20150;-75
2023/04/26 09:00:25;;;;;;;7.90;4.35;;;;;;;14.13;77.21;97853.06;7339613;19;20081;-77
2023/04/26 09:02:51;;;;;;;7.13;4.72;;;;;;;14.16;77.70;97854.56;7345617;19;20018;-76
2023/04/26 09:05:16;;;;;;;6.57;4.10;;;;;;;14.12;77.43;97862.09;7349173;19;20007;-76
2023/04/26 09:07:44;;;;;;;10.23;4.90;;;;;;;13.95;77.07;97860.53;7346566;19;20114;-77
2023/04/26 09:10:10;;;;;;;9.52;5.63;;;;;;;13.88;77.76;97862.25;7347387;19;20026;-77
2023/04/26 09:12:36;;;;;;;6.22;5.07;;;;;;;13.78;78.42;97864.25;7346643;19;20013;-78
2023/04/26 09:15:03;;;;;;;11.00;4.90;;;;;;;13.65;78.63;97872.03;7345542;19;20018;-78
2023/04/26 09:17:32;;;;;;;10.80;5.40;;;;;;;13.46;79.06;97873.25;7348670;19;20059;-77
2023/04/26 09:19:58;;;;;;;11.43;5.10;;;;;;;13.28;79.89;97880.66;7346468;19;20458;-77
2023/04/26 09:22:36;;;;;;;8.05;5.65;;;;;;;13.23;80.39;97882.97;7344308;19;20014;-76
2023/04/26 09:25:03;;;;;;;12.73;6.10;;;;;;;13.07;80.78;97878.47;7345824;19;20017;-78
2023/04/26 09:27:42;;;;;;;8.05;6.28;;;;;;;13.13;81.21;97885.81;7348784;19;20033;-77
2023/04/26 09:30:14;;;;;;;9.68;5.78;;;;;;;13.02;81.31;97886.97;7346125;19;20492;-76
2023/04/26 09:32:54;;;;;;;9.43;6.28;;;;;;;13.10;81.52;97888.81;7348249;19;20031;-77
2023/04/26 09:35:39;;;;;;;8.55;5.60;;;;;;;13.20;81.42;97883.34;7350441;19;20478;-76
2023/04/26 09:38:09;;;;;;;7.43;6.18;;;;;;;13.16;81.42;97882.00;7349054;19;20022;-78
2023/04/26 09:40:36;;;;;;;7.82;6.88;;;;;;;13.17;81.12;97881.84;7352255;19;20014;-74
2023/04/26 09:43:12;;;;;;;9.68;5.88;;;;;;;13.25;81.16;97878.31;7348905;19;20066;-77
2023/04/26 09:45:51;;;;;;;9.90;6.30;;;;;;;13.35;80.97;97895.84;7348751;19;20014;-80
2023/04/26 09:48:29;;;;;;;7.30;6.20;;;;;;;13.36;80.93;97888.66;7349711;19;20026;-76
2023/04/26 09:50:56;;;;;;;8.18;5.90;;;;;;;13.45;80.99;97892.97;7345992;19;20098;-78
2023/04/26 09:53:28;;;;;;;9.05;5.93;;;;;;;13.55;80.69;97895.47;7344667;19;20018;-78
2023/04/26 09:55:54;;;;;;;8.68;6.03;;;;;;;13.58;80.57;97885.25;7345108;19;20043;-78
2023/04/26 09:58:19;;;;;;;7.93;5.40;;;;;;;13.71;80.23;97888.25;7344764;19;20342;-79
2023/04/26 10:00:48;;;;;;;7.53;5.13;;;;;;;13.74;78.94;97898.63;7346280;19;20334;-78
2023/04/26 10:03:13;;;;;;;7.63;5.55;;;;;;;13.85;78.07;97900.09;7345285;19;20015;-78
2023/04/26 10:05:38;;;;;;;7.70;6.05;;;;;;;14.00;78.22;97905.53;7342532;19;20409;-77
2023/04/26 10:08:03;;;;;;;8.93;6.45;;;;;;;14.20;78.47;97908.66;7343231;19;20406;-77
2023/04/26 10:10:29;;;;;;;6.25;5.57;;;;;;;14.15;77.22;97899.28;7344445;19;20360;-78
2023/04/26 10:12:53;;;;;;;5.70;5.00;;;;;;;14.27;76.43;97915.81;7344592;19;20022;-77
2023/04/26 10:15:18;;;;;;;7.55;5.72;;;;;;;14.39;76.35;97909.09;7348543;19;20053;-78
2023/04/26 10:17:44;;;;;;;7.70;5.80;;;;;;;14.50;76.13;97913.22;7343395;19;20018;-75
2023/04/26 10:20:13;;;;;;;8.82;5.47;;;;;;;14.79;75.76;97910.66;7344155;19;20018;-76
2023/04/26 10:22:50;;;;;;;7.15;5.15;;;;;;;15.08;74.05;97909.97;7342200;19;20042;-75
2023/04/26 10:25:14;;;;;;;10.35;5.38;;;;;;;15.18;73.32;97909.72;7341851;19;20015;-75
2023/04/26 10:27:42;;;;;;;7.53;4.90;;;;;;;15.36;73.24;97909.38;7340266;19;20014;-75
2023/04/26 10:30:11;;;;;;;6.28;4.78;;;;;;;15.60;73.38;97907.31;7342129;19;20577;-71
2023/04/26 10:32:51;;;;;;;9.85;6.18;;;;;;;16.11;72.77;97917.34;7337788;19;20019;-71
2023/04/26 10:35:18;;;;;;;7.93;5.07;;;;;;;16.27;70.52;97917.13;7340310;19;20023;-71
2023/04/26 10:38:01;;;;;;;5.40;4.65;;;;;;;16.71;70.09;97917.06;7340704;19;20015;-71
2023/04/26 10:40:38;;;;;;;7.30;4.67;;;;;;;16.92;69.08;97910.88;7340086;19;20027;-71
2023/04/26 10:43:15;;;;;;;6.28;4.70;;;;;;;17.05;67.23;97917.22;7337934;19;20283;-72
2023/04/26 10:45:47;;;;;;;5.63;5.03;;;;;;;16.95;66.36;97914.00;7338935;19;20109;-72
2023/04/26 10:48:22;;;;;;;7.63;4.88;;;;;;;16.60;67.02;97920.22;7340395;19;20025;-72
2023/04/26 10:50:58;;;;;;;6.80;5.13;;;;;;;16.34;68.57;97918.91;7340276;19;20027;-73
2023/04/26 10:53:22;;;;;;;6.55;5.45;;;;;;;15.88;69.28;97920.13;7337477;19;20018;-74
2023/04/26 10:55:48;;;;;;;7.03;5.82;;;;;;;15.56;70.14;97924.00;7338154;19;20010;-71
2023/04/26 10:58:45;;;;;;;8.38;4.78;;;;;;;15.47;71.38;97933.94;7345257;19;20014;-74
2023/04/26 11:01:17;;;;;;;9.02;5.65;;;;;;;15.19;72.28;97935.53;7342153;19;20636;-75
2023/04/26 11:04:03;;;;;;;8.50;6.07;;;;;;;15.07;72.95;97955.75;7342754;19;20022;-73
2023/04/26 11:06:50;;;;;;;10.73;5.28;;;;;;;14.96;74.26;97961.53;7343870;19;20015;-72
2023/04/26 11:09:38;;;;;;;7.72;5.93;;;;;;;14.85;73.96;97947.53;7344620;19;20025;-75
2023/04/26 11:12:06;;;;;;;6.10;3.95;;;;;;;14.57;74.37;97945.50;7346272;19;20011;-77
2023/04/26 11:14:34;;;;;;;3.55;3.22;;;;;;;14.72;74.86;97951.81;7347433;19;19999;-76
2023/04/26 11:17:03;;;;;;;3.63;3.22;;;;;;;15.11;73.97;97946.34;7346206;19;20363;-77
2023/04/26 11:19:28;;;;;;;3.83;3.40;;;;;;;15.48;73.00;97940.13;7346341;19;20117;-77
2023/04/26 11:21:53;;;;;;;3.47;3.08;;;;;;;15.90;72.10;97944.97;7345188;19;20059;-76
2023/04/26 11:24:24;;;;;;;5.40;3.65;;;;;;;16.36;70.91;97953.69;7342724;19;20020;-77
2023/04/26 11:26:53;;;;;;;4.20;3.20;;;;;;;16.65;70.03;97947.44;7346589;19;20117;-77
2023/04/26 11:29:20;;;;;;;5.60;3.95;;;;;;;16.93;68.91;97959.13;7346090;19;20011;-76